sensor_id;sensor_type;location;lat;lon;timestamp;pressure;altitude;pressure_sealevel;temperature;humidity
23446;BME280;11895;48.738;9.320;2022-08-03T00:00:32;98796.91;;;25.46;53.46
23446;BME280;11895;48.738;9.320;2022-08-03T00:02:59;98794.47;;;25.43;53.73
23446;BME280;11895;48.738;9.320;2022-08-03T00:05:27;98795.84;;;25.38;53.35
23446;BME280;11895;48.738;9.320;2022-08-03T00:07:55;98790.66;;;25.35;53.67
23446;BME280;11895;48.738;9.320;2022-08-03T00:10:22;98796.31;;;25.26;53.85
23446;BME280;11895;48.738;9.320;2022-08-03T00:12:50;98782.03;;;25.30;54.34
23446;BME280;11895;48.738;9.320;2022-08-03T00:15:20;98785.50;;;25.41;53.91
23446;BME280;11895;48.738;9.320;2022-08-03T00:17:50;98782.44;;;25.44;53.59
23446;BME280;11895;48.738;9.320;2022-08-03T00:20:20;98782.06;;;25.47;50.68
23446;BME280;11895;48.738;9.320;2022-08-03T00:22:48;98786.69;;;25.30;53.55
23446;BME280;11895;48.738;9.320;2022-08-03T00:25:16;98785.78;;;25.21;55.73
23446;BME280;11895;48.738;9.320;2022-08-03T00:27:45;98787.44;;;25.14;55.07
23446;BME280;11895;48.738;9.320;2022-08-03T00:30:16;98784.00;;;25.12;53.85
23446;BME280;11895;48.738;9.320;2022-08-03T00:32:44;98785.72;;;25.13;52.85
23446;BME280;11895;48.738;9.320;2022-08-03T00:35:12;98787.44;;;25.14;54.03
23446;BME280;11895;48.738;9.320;2022-08-03T00:38:00;98783.34;;;24.92;55.74
23446;BME280;11895;48.738;9.320;2022-08-03T00:40:27;98779.13;;;24.80;55.88
23446;BME280;11895;48.738;9.320;2022-08-03T00:42:59;98783.84;;;24.87;54.88
23446;BME280;11895;48.738;9.320;2022-08-03T00:45:33;98783.56;;;24.47;55.63
23446;BME280;11895;48.738;9.320;2022-08-03T00:48:02;98781.00;;;24.35;56.31
23446;BME280;11895;48.738;9.320;2022-08-03T00:50:53;98782.53;;;24.30;56.94
23446;BME280;11895;48.738;9.320;2022-08-03T00:53:24;98782.31;;;24.23;57.62
23446;BME280;11895;48.738;9.320;2022-08-03T01:17:24;98779.88;;;24.02;59.42
23446;BME280;11895;48.738;9.320;2022-08-03T01:38:54;98762.97;;;24.15;57.93
23446;BME280;11895;48.738;9.320;2022-08-03T01:41:30;98756.03;;;24.11;59.18
23446;BME280;11895;48.738;9.320;2022-08-03T01:53:20;98750.63;;;24.01;57.19
23446;BME280;11895;48.738;9.320;2022-08-03T01:55:51;98751.47;;;24.02;59.02
23446;BME280;11895;48.738;9.320;2022-08-03T01:58:23;98749.13;;;24.07;58.49
23446;BME280;11895;48.738;9.320;2022-08-03T02:00:52;98750.16;;;23.88;60.16
23446;BME280;11895;48.738;9.320;2022-08-03T02:03:25;98745.50;;;24.06;58.78
23446;BME280;11895;48.738;9.320;2022-08-03T02:05:55;98747.19;;;23.81;60.25
23446;BME280;11895;48.738;9.320;2022-08-03T02:08:43;98748.28;;;23.71;59.02
23446;BME280;11895;48.738;9.320;2022-08-03T02:11:11;98753.53;;;23.64;60.01
23446;BME280;11895;48.738;9.320;2022-08-03T02:13:39;98750.00;;;23.72;59.51
23446;BME280;11895;48.738;9.320;2022-08-03T02:16:06;98745.88;;;23.58;59.84
23446;BME280;11895;48.738;9.320;2022-08-03T02:18:35;98743.59;;;23.53;61.02
23446;BME280;11895;48.738;9.320;2022-08-03T02:21:08;98755.34;;;23.73;60.46
23446;BME280;11895;48.738;9.320;2022-08-03T02:23:37;98754.06;;;23.68;61.49
23446;BME280;11895;48.738;9.320;2022-08-03T02:26:09;98748.16;;;23.63;61.30
23446;BME280;11895;48.738;9.320;2022-08-03T02:28:39;98749.84;;;23.91;58.11
23446;BME280;11895;48.738;9.320;2022-08-03T02:31:12;98754.34;;;23.74;60.42
23446;BME280;11895;48.738;9.320;2022-08-03T02:33:46;98754.78;;;23.88;57.81
23446;BME280;11895;48.738;9.320;2022-08-03T02:36:17;98756.22;;;23.92;58.74
23446;BME280;11895;48.738;9.320;2022-08-03T02:38:48;98744.91;;;23.95;58.59
23446;BME280;11895;48.738;9.320;2022-08-03T02:41:24;98755.91;;;23.95;58.11
23446;BME280;11895;48.738;9.320;2022-08-03T02:44:02;98743.56;;;23.81;57.68
23446;BME280;11895;48.738;9.320;2022-08-03T02:46:36;98744.56;;;23.98;56.08
23446;BME280;11895;48.738;9.320;2022-08-03T02:49:05;98748.19;;;23.80;59.61
23446;BME280;11895;48.738;9.320;2022-08-03T02:51:54;98744.72;;;23.78;58.41
23446;BME280;11895;48.738;9.320;2022-08-03T02:54:22;98744.31;;;23.55;59.73
23446;BME280;11895;48.738;9.320;2022-08-03T02:56:53;98747.41;;;23.70;57.79
23446;BME280;11895;48.738;9.320;2022-08-03T02:59:23;98753.53;;;23.64;52.08
23446;BME280;11895;48.738;9.320;2022-08-03T03:01:55;98752.47;;;23.47;60.69
23446;BME280;11895;48.738;9.320;2022-08-03T03:04:27;98754.81;;;23.15;61.05
23446;BME280;11895;48.738;9.320;2022-08-03T03:06:59;98755.13;;;23.12;61.64
23446;BME280;11895;48.738;9.320;2022-08-03T03:09:31;98754.13;;;23.30;60.41
23446;BME280;11895;48.738;9.320;2022-08-03T03:12:09;98749.53;;;23.31;59.48
23446;BME280;11895;48.738;9.320;2022-08-03T03:14:39;98754.56;;;23.36;59.35
23446;BME280;11895;48.738;9.320;2022-08-03T03:17:08;98753.94;;;23.14;60.78
23446;BME280;11895;48.738;9.320;2022-08-03T03:19:37;98753.06;;;22.76;62.91
23446;BME280;11895;48.738;9.320;2022-08-03T03:22:06;98751.22;;;22.67;62.79
23446;BME280;11895;48.738;9.320;2022-08-03T03:24:35;98757.97;;;22.82;62.77
23446;BME280;11895;48.738;9.320;2022-08-03T03:27:10;98753.28;;;23.02;61.24
23446;BME280;11895;48.738;9.320;2022-08-03T03:29:43;98742.31;;;23.02;61.41
23446;BME280;11895;48.738;9.320;2022-08-03T03:32:11;98751.50;;;23.11;60.10
23446;BME280;11895;48.738;9.320;2022-08-03T03:34:40;98743.50;;;22.80;63.16
23446;BME280;11895;48.738;9.320;2022-08-03T03:37:10;98744.59;;;23.07;62.20
23446;BME280;11895;48.738;9.320;2022-08-03T03:39:40;98743.75;;;23.06;61.12
23446;BME280;11895;48.738;9.320;2022-08-03T03:42:08;98746.13;;;22.72;63.94
23446;BME280;11895;48.738;9.320;2022-08-03T03:44:39;98747.28;;;22.89;63.03
23446;BME280;11895;48.738;9.320;2022-08-03T03:47:06;98747.22;;;22.99;63.11
23446;BME280;11895;48.738;9.320;2022-08-03T03:49:34;98744.28;;;23.10;62.64
23446;BME280;11895;48.738;9.320;2022-08-03T03:52:03;98747.28;;;22.89;62.15
23446;BME280;11895;48.738;9.320;2022-08-03T03:54:43;98753.47;;;22.91;62.75
23446;BME280;11895;48.738;9.320;2022-08-03T03:57:11;98752.59;;;22.91;63.21
23446;BME280;11895;48.738;9.320;2022-08-03T03:59:40;98756.22;;;22.81;63.67
23446;BME280;11895;48.738;9.320;2022-08-03T04:02:09;98749.16;;;22.89;63.83
23446;BME280;11895;48.738;9.320;2022-08-03T04:04:40;98751.13;;;22.96;63.14
23446;BME280;11895;48.738;9.320;2022-08-03T04:07:31;98755.75;;;22.58;64.92
23446;BME280;11895;48.738;9.320;2022-08-03T04:10:27;98752.84;;;22.60;65.17
23446;BME280;11895;48.738;9.320;2022-08-03T04:13:16;98751.53;;;22.64;64.36
23446;BME280;11895;48.738;9.320;2022-08-03T04:15:44;98761.06;;;22.60;65.08
23446;BME280;11895;48.738;9.320;2022-08-03T04:18:13;98763.53;;;22.63;64.57
23446;BME280;11895;48.738;9.320;2022-08-03T04:20:43;98763.25;;;22.47;64.89
23446;BME280;11895;48.738;9.320;2022-08-03T04:23:14;98761.25;;;22.49;64.36
23446;BME280;11895;48.738;9.320;2022-08-03T04:25:46;98756.78;;;22.38;65.49
23446;BME280;11895;48.738;9.320;2022-08-03T04:28:15;98763.75;;;22.79;63.50
23446;BME280;11895;48.738;9.320;2022-08-03T04:31:01;98758.31;;;23.34;60.69
23446;BME280;11895;48.738;9.320;2022-08-03T04:33:30;98761.22;;;23.33;55.49
23446;BME280;11895;48.738;9.320;2022-08-03T04:36:03;98759.44;;;23.42;60.20
23446;BME280;11895;48.738;9.320;2022-08-03T04:38:51;98774.22;;;23.41;61.35
23446;BME280;11895;48.738;9.320;2022-08-03T04:41:23;98766.91;;;23.49;59.33
23446;BME280;11895;48.738;9.320;2022-08-03T04:43:54;98766.66;;;23.43;60.51
23446;BME280;11895;48.738;9.320;2022-08-03T04:46:35;98770.38;;;22.96;62.44
23446;BME280;11895;48.738;9.320;2022-08-03T04:49:12;98776.06;;;23.40;61.34
23446;BME280;11895;48.738;9.320;2022-08-03T04:51:40;98777.91;;;23.49;59.59
23446;BME280;11895;48.738;9.320;2022-08-03T04:54:12;98774.91;;;23.43;60.65
23446;BME280;11895;48.738;9.320;2022-08-03T04:56:40;98783.16;;;23.43;60.97
23446;BME280;11895;48.738;9.320;2022-08-03T04:59:08;98788.72;;;23.33;61.43
23446;BME280;11895;48.738;9.320;2022-08-03T05:01:36;98776.44;;;23.55;60.24
23446;BME280;11895;48.738;9.320;2022-08-03T05:04:04;98788.50;;;23.72;59.33
23446;BME280;11895;48.738;9.320;2022-08-03T05:06:37;98775.44;;;23.74;58.13
23446;BME280;11895;48.738;9.320;2022-08-03T05:09:14;98785.22;;;23.86;58.81
23446;BME280;11895;48.738;9.320;2022-08-03T05:12:02;98782.78;;;24.01;59.16
23446;BME280;11895;48.738;9.320;2022-08-03T05:14:31;98786.00;;;23.96;58.51
23446;BME280;11895;48.738;9.320;2022-08-03T05:16:59;98785.91;;;23.70;59.64
23446;BME280;11895;48.738;9.320;2022-08-03T05:19:32;98789.56;;;23.89;59.27
23446;BME280;11895;48.738;9.320;2022-08-03T05:22:00;98791.44;;;24.06;59.06
23446;BME280;11895;48.738;9.320;2022-08-03T05:24:27;98794.72;;;23.92;59.75
23446;BME280;11895;48.738;9.320;2022-08-03T05:26:55;98792.50;;;23.77;60.08
23446;BME280;11895;48.738;9.320;2022-08-03T05:29:23;98782.91;;;24.17;58.25
23446;BME280;11895;48.738;9.320;2022-08-03T05:31:50;98794.78;;;24.53;57.35
23446;BME280;11895;48.738;9.320;2022-08-03T05:34:18;98792.22;;;24.52;57.78
23446;BME280;11895;48.738;9.320;2022-08-03T05:36:46;98792.91;;;24.54;57.96
23446;BME280;11895;48.738;9.320;2022-08-03T05:39:14;98792.81;;;24.46;57.19
23446;BME280;11895;48.738;9.320;2022-08-03T05:41:47;98788.84;;;24.04;59.66
23446;BME280;11895;48.738;9.320;2022-08-03T05:44:16;98794.88;;;23.72;60.09
23446;BME280;11895;48.738;9.320;2022-08-03T05:46:44;98798.94;;;23.41;62.05
23446;BME280;11895;48.738;9.320;2022-08-03T05:49:11;98795.34;;;23.85;60.76
23446;BME280;11895;48.738;9.320;2022-08-03T05:51:39;98788.97;;;24.21;59.09
23446;BME280;11895;48.738;9.320;2022-08-03T05:54:06;98787.19;;;23.94;58.91
23446;BME280;11895;48.738;9.320;2022-08-03T05:56:34;98790.03;;;24.38;58.49
23446;BME280;11895;48.738;9.320;2022-08-03T05:59:02;98790.03;;;24.38;57.41
23446;BME280;11895;48.738;9.320;2022-08-03T06:01:50;98791.56;;;24.22;58.04
23446;BME280;11895;48.738;9.320;2022-08-03T06:04:17;98788.91;;;23.95;59.23
23446;BME280;11895;48.738;9.320;2022-08-03T06:06:45;98786.06;;;23.87;59.55
23446;BME280;11895;48.738;9.320;2022-08-03T06:09:13;98784.81;;;24.34;58.74
23446;BME280;11895;48.738;9.320;2022-08-03T06:11:41;98782.00;;;24.70;57.97
23446;BME280;11895;48.738;9.320;2022-08-03T06:14:12;98786.97;;;24.93;56.94
23446;BME280;11895;48.738;9.320;2022-08-03T06:16:39;98790.91;;;25.16;55.12
23446;BME280;11895;48.738;9.320;2022-08-03T06:19:07;98785.81;;;25.29;55.22
23446;BME280;11895;48.738;9.320;2022-08-03T06:21:37;98790.25;;;25.22;55.70
23446;BME280;11895;48.738;9.320;2022-08-03T06:24:06;98791.97;;;25.23;55.06
23446;BME280;11895;48.738;9.320;2022-08-03T06:26:34;98795.97;;;25.03;56.16
23446;BME280;11895;48.738;9.320;2022-08-03T06:29:01;98787.53;;;25.30;55.63
23446;BME280;11895;48.738;9.320;2022-08-03T06:31:30;98789.81;;;25.85;54.09
23446;BME280;11895;48.738;9.320;2022-08-03T06:34:03;98788.84;;;26.11;53.03
23446;BME280;11895;48.738;9.320;2022-08-03T06:36:53;98788.78;;;25.95;53.89
23446;BME280;11895;48.738;9.320;2022-08-03T06:39:28;98784.00;;;26.29;53.52
23446;BME280;11895;48.738;9.320;2022-08-03T06:41:56;98790.06;;;26.41;52.60
23446;BME280;11895;48.738;9.320;2022-08-03T06:44:24;98791.63;;;26.60;52.33
23446;BME280;11895;48.738;9.320;2022-08-03T06:46:53;98794.34;;;26.11;53.20
23446;BME280;11895;48.738;9.320;2022-08-03T06:49:21;98791.94;;;26.40;52.37
23446;BME280;11895;48.738;9.320;2022-08-03T06:51:49;98794.22;;;26.61;52.35
23446;BME280;11895;48.738;9.320;2022-08-03T06:54:34;98794.38;;;26.52;51.93
23446;BME280;11895;48.738;9.320;2022-08-03T06:57:02;98796.03;;;27.18;50.69
23446;BME280;11895;48.738;9.320;2022-08-03T06:59:30;98796.09;;;26.53;52.25
23446;BME280;11895;48.738;9.320;2022-08-03T07:02:18;98800.38;;;26.88;51.45
23446;BME280;11895;48.738;9.320;2022-08-03T07:04:47;98806.38;;;27.16;50.50
23446;BME280;11895;48.738;9.320;2022-08-03T07:07:15;98806.59;;;27.54;49.73
23446;BME280;11895;48.738;9.320;2022-08-03T07:09:46;98806.31;;;27.40;50.04
23446;BME280;11895;48.738;9.320;2022-08-03T07:12:27;98797.84;;;27.81;48.97
23446;BME280;11895;48.738;9.320;2022-08-03T07:14:55;98802.00;;;27.85;48.88
23446;BME280;11895;48.738;9.320;2022-08-03T07:17:30;98794.06;;;28.05;48.77
23446;BME280;11895;48.738;9.320;2022-08-03T07:20:06;98794.13;;;28.20;47.93
23446;BME280;11895;48.738;9.320;2022-08-03T07:22:37;98787.56;;;28.44;47.37
23446;BME280;11895;48.738;9.320;2022-08-03T07:25:05;98789.63;;;28.65;47.01
23446;BME280;11895;48.738;9.320;2022-08-03T07:27:33;98791.88;;;28.47;47.18
23446;BME280;11895;48.738;9.320;2022-08-03T07:30:01;98788.13;;;28.77;47.36
23446;BME280;11895;48.738;9.320;2022-08-03T07:32:29;98793.63;;;29.00;46.97
23446;BME280;11895;48.738;9.320;2022-08-03T07:35:05;98791.72;;;29.15;45.66
23446;BME280;11895;48.738;9.320;2022-08-03T07:37:51;98786.28;;;29.22;45.28
23446;BME280;11895;48.738;9.320;2022-08-03T07:40:21;98790.88;;;29.15;44.92
23446;BME280;11895;48.738;9.320;2022-08-03T07:42:58;98790.50;;;29.18;45.26
23446;BME280;11895;48.738;9.320;2022-08-03T07:45:27;98798.91;;;29.54;44.30
23446;BME280;11895;48.738;9.320;2022-08-03T07:47:57;98792.84;;;29.80;44.51
23446;BME280;11895;48.738;9.320;2022-08-03T07:50:26;98792.50;;;30.05;42.22
23446;BME280;11895;48.738;9.320;2022-08-03T07:52:54;98791.41;;;30.20;43.21
23446;BME280;11895;48.738;9.320;2022-08-03T07:55:24;98792.84;;;29.80;43.49
23446;BME280;11895;48.738;9.320;2022-08-03T07:58:02;98785.34;;;30.32;42.42
23446;BME280;11895;48.738;9.320;2022-08-03T08:00:31;98786.47;;;30.37;43.05
23446;BME280;11895;48.738;9.320;2022-08-03T08:02:59;98785.13;;;30.55;41.99
23446;BME280;11895;48.738;9.320;2022-08-03T08:05:27;98781.69;;;30.74;41.52
23446;BME280;11895;48.738;9.320;2022-08-03T08:28:20;98775.59;;;31.20;40.52
23446;BME280;11895;48.738;9.320;2022-08-03T08:31:00;98777.47;;;31.47;38.99
23446;BME280;11895;48.738;9.320;2022-08-03T08:33:28;98777.59;;;31.67;39.33
23446;BME280;11895;48.738;9.320;2022-08-03T08:36:16;98767.88;;;31.98;38.62
23446;BME280;11895;48.738;9.320;2022-08-03T08:41:50;98771.78;;;32.17;36.96
23446;BME280;11895;48.738;9.320;2022-08-03T08:44:19;98771.44;;;32.40;36.92
23446;BME280;11895;48.738;9.320;2022-08-03T09:02:27;98757.94;;;33.03;35.04
23446;BME280;11895;48.738;9.320;2022-08-03T09:08:21;98760.69;;;33.10;33.83
23446;BME280;11895;48.738;9.320;2022-08-03T09:17:42;98757.78;;;33.63;33.13
23446;BME280;11895;48.738;9.320;2022-08-03T09:20:21;98754.94;;;33.76;33.59
23446;BME280;11895;48.738;9.320;2022-08-03T09:26:19;98752.91;;;34.28;32.43
23446;BME280;11895;48.738;9.320;2022-08-03T09:31:59;98743.91;;;34.26;33.40
23446;BME280;11895;48.738;9.320;2022-08-03T09:34:28;98751.50;;;34.19;33.28
23446;BME280;11895;48.738;9.320;2022-08-03T09:36:57;98747.78;;;34.25;32.86
23446;BME280;11895;48.738;9.320;2022-08-03T09:42:30;98752.19;;;34.71;32.30
23446;BME280;11895;48.738;9.320;2022-08-03T09:45:01;98750.69;;;34.93;30.98
23446;BME280;11895;48.738;9.320;2022-08-03T09:47:30;98748.03;;;34.55;31.71
23446;BME280;11895;48.738;9.320;2022-08-03T09:50:03;98740.31;;;34.50;31.45
23446;BME280;11895;48.738;9.320;2022-08-03T09:52:34;98741.31;;;34.81;30.66
23446;BME280;11895;48.738;9.320;2022-08-03T09:55:18;98740.75;;;34.47;31.61
23446;BME280;11895;48.738;9.320;2022-08-03T09:58:11;98740.03;;;35.27;30.71
23446;BME280;11895;48.738;9.320;2022-08-03T10:03:58;98736.22;;;34.78;31.49
23446;BME280;11895;48.738;9.320;2022-08-03T10:06:31;98738.31;;;35.08;31.02
23446;BME280;11895;48.738;9.320;2022-08-03T10:11:37;98725.56;;;35.12;30.06
23446;BME280;11895;48.738;9.320;2022-08-03T10:14:09;98726.94;;;35.46;30.14
23446;BME280;11895;48.738;9.320;2022-08-03T10:16:44;98718.72;;;35.63;29.49
23446;BME280;11895;48.738;9.320;2022-08-03T10:19:13;98721.50;;;35.81;27.49
23446;BME280;11895;48.738;9.320;2022-08-03T10:21:45;98722.69;;;36.22;27.60
23446;BME280;11895;48.738;9.320;2022-08-03T10:24:16;98721.63;;;36.04;28.17
23446;BME280;11895;48.738;9.320;2022-08-03T10:26:43;98720.63;;;36.29;28.09
23446;BME280;11895;48.738;9.320;2022-08-03T10:29:17;98718.06;;;35.97;28.10
23446;BME280;11895;48.738;9.320;2022-08-03T10:31:49;98713.72;;;36.43;27.27
23446;BME280;11895;48.738;9.320;2022-08-03T10:34:25;98716.31;;;36.57;26.54
23446;BME280;11895;48.738;9.320;2022-08-03T10:36:57;98707.41;;;36.48;26.63
23446;BME280;11895;48.738;9.320;2022-08-03T10:39:28;98712.22;;;36.94;25.92
23446;BME280;11895;48.738;9.320;2022-08-03T10:42:22;98705.38;;;36.90;25.35
23446;BME280;11895;48.738;9.320;2022-08-03T10:45:03;98699.97;;;36.89;25.68
23446;BME280;11895;48.738;9.320;2022-08-03T10:47:34;98696.06;;;36.13;26.05
23446;BME280;11895;48.738;9.320;2022-08-03T10:50:06;98702.19;;;36.87;25.60
23446;BME280;11895;48.738;9.320;2022-08-03T10:52:34;98699.72;;;36.67;26.55
23446;BME280;11895;48.738;9.320;2022-08-03T11:04:27;98693.16;;;36.61;26.46
23446;BME280;11895;48.738;9.320;2022-08-03T11:07:17;98694.50;;;37.05;25.94
23446;BME280;11895;48.738;9.320;2022-08-03T11:12:28;98688.22;;;37.91;25.36
23446;BME280;11895;48.738;9.320;2022-08-03T11:15:00;98686.28;;;36.69;26.90
23446;BME280;11895;48.738;9.320;2022-08-03T11:17:31;98680.25;;;36.95;26.37
23446;BME280;11895;48.738;9.320;2022-08-03T11:20:13;98679.97;;;37.09;26.21
23446;BME280;11895;48.738;9.320;2022-08-03T11:22:47;98677.06;;;37.67;26.43
23446;BME280;11895;48.738;9.320;2022-08-03T11:25:15;98682.44;;;37.97;25.53
23446;BME280;11895;48.738;9.320;2022-08-03T11:31:07;98668.38;;;38.43;24.65
23446;BME280;11895;48.738;9.320;2022-08-03T11:34:17;98677.94;;;38.75;24.40
23446;BME280;11895;48.738;9.320;2022-08-03T11:46:11;98665.91;;;39.19;24.30
23446;BME280;11895;48.738;9.320;2022-08-03T11:49:02;98673.94;;;38.88;24.92
23446;BME280;11895;48.738;9.320;2022-08-03T11:51:37;98673.59;;;39.45;23.97
23446;BME280;11895;48.738;9.320;2022-08-03T11:54:06;98665.28;;;39.99;24.18
23446;BME280;11895;48.738;9.320;2022-08-03T12:05:46;98663.13;;;41.66;21.81
23446;BME280;11895;48.738;9.320;2022-08-03T12:08:39;98649.00;;;40.71;22.89
23446;BME280;11895;48.738;9.320;2022-08-03T12:35:00;98649.75;;;42.24;20.85
23446;BME280;11895;48.738;9.320;2022-08-03T12:37:30;98642.94;;;44.26;19.35
23446;BME280;11895;48.738;9.320;2022-08-03T12:46:56;98649.00;;;46.02;18.01
23446;BME280;11895;48.738;9.320;2022-08-03T12:49:24;98647.03;;;47.20;16.60
23446;BME280;11895;48.738;9.320;2022-08-03T12:58:39;98638.75;;;50.10;14.29
23446;BME280;11895;48.738;9.320;2022-08-03T13:08:02;98639.38;;;52.08;13.02
23446;BME280;11895;48.738;9.320;2022-08-03T13:10:32;98647.16;;;51.40;13.77
23446;BME280;11895;48.738;9.320;2022-08-03T13:13:00;98642.41;;;52.03;13.16
23446;BME280;11895;48.738;9.320;2022-08-03T13:15:30;98645.09;;;52.71;12.77
23446;BME280;11895;48.738;9.320;2022-08-03T13:18:04;98627.38;;;49.79;14.39
23446;BME280;11895;48.738;9.320;2022-08-03T13:20:34;98636.16;;;51.51;13.60
23446;BME280;11895;48.738;9.320;2022-08-03T13:23:01;98634.09;;;52.10;12.90
23446;BME280;11895;48.738;9.320;2022-08-03T13:25:29;98631.16;;;51.30;13.44
23446;BME280;11895;48.738;9.320;2022-08-03T13:27:56;98629.34;;;52.14;12.65
23446;BME280;11895;48.738;9.320;2022-08-03T13:30:31;98626.28;;;52.74;12.27
23446;BME280;11895;48.738;9.320;2022-08-03T13:33:02;98629.28;;;52.23;13.03
23446;BME280;11895;48.738;9.320;2022-08-03T13:35:29;98628.97;;;50.72;13.33
23446;BME280;11895;48.738;9.320;2022-08-03T13:37:56;98622.22;;;51.32;13.10
23446;BME280;11895;48.738;9.320;2022-08-03T13:40:26;98604.66;;;46.34;16.28
23446;BME280;11895;48.738;9.320;2022-08-03T13:42:56;98605.69;;;46.24;16.32
23446;BME280;11895;48.738;9.320;2022-08-03T13:45:24;98603.81;;;47.12;15.78
23446;BME280;11895;48.738;9.320;2022-08-03T13:48:18;98600.22;;;46.93;16.18
23446;BME280;11895;48.738;9.320;2022-08-03T13:51:04;98608.19;;;49.22;14.48
23446;BME280;11895;48.738;9.320;2022-08-03T13:53:49;98605.63;;;50.99;13.41
23446;BME280;11895;48.738;9.320;2022-08-03T13:56:17;98602.69;;;51.16;13.55
23446;BME280;11895;48.738;9.320;2022-08-03T13:58:46;98605.78;;;51.03;13.17
23446;BME280;11895;48.738;9.320;2022-08-03T14:01:14;98602.03;;;52.62;12.62
23446;BME280;11895;48.738;9.320;2022-08-03T14:03:41;98595.44;;;52.62;11.21
23446;BME280;11895;48.738;9.320;2022-08-03T14:06:10;98587.81;;;53.60;11.37
23446;BME280;11895;48.738;9.320;2022-08-03T14:08:40;98593.91;;;53.83;11.62
23446;BME280;11895;48.738;9.320;2022-08-03T14:11:07;98601.19;;;53.07;11.83
23446;BME280;11895;48.738;9.320;2022-08-03T14:13:34;98591.41;;;53.70;11.13
23446;BME280;11895;48.738;9.320;2022-08-03T14:16:02;98589.94;;;53.76;10.89
23446;BME280;11895;48.738;9.320;2022-08-03T14:18:29;98586.28;;;54.03;10.56
23446;BME280;11895;48.738;9.320;2022-08-03T14:21:04;98586.06;;;52.98;11.27
23446;BME280;11895;48.738;9.320;2022-08-03T14:23:34;98587.94;;;53.64;11.19
23446;BME280;11895;48.738;9.320;2022-08-03T14:26:07;98576.50;;;53.06;11.36
23446;BME280;11895;48.738;9.320;2022-08-03T14:28:38;98568.69;;;52.07;12.06
23446;BME280;11895;48.738;9.320;2022-08-03T14:31:10;98577.59;;;51.94;12.19
23446;BME280;11895;48.738;9.320;2022-08-03T14:33:58;98580.53;;;51.85;12.72
23446;BME280;11895;48.738;9.320;2022-08-03T14:36:25;98571.00;;;53.50;11.67
23446;BME280;11895;48.738;9.320;2022-08-03T14:38:52;98573.63;;;53.92;11.21
23446;BME280;11895;48.738;9.320;2022-08-03T14:41:24;98575.19;;;52.58;12.13
23446;BME280;11895;48.738;9.320;2022-08-03T14:43:51;98571.63;;;52.61;11.49
23446;BME280;11895;48.738;9.320;2022-08-03T14:46:27;98569.13;;;52.51;11.66
23446;BME280;11895;48.738;9.320;2022-08-03T14:48:55;98566.81;;;52.65;11.99
23446;BME280;11895;48.738;9.320;2022-08-03T14:51:42;98567.38;;;53.04;11.47
23446;BME280;11895;48.738;9.320;2022-08-03T14:54:19;98565.28;;;51.04;12.62
23446;BME280;11895;48.738;9.320;2022-08-03T14:56:47;98554.38;;;52.40;11.65
23446;BME280;11895;48.738;9.320;2022-08-03T14:59:14;98560.41;;;52.93;11.56
23446;BME280;11895;48.738;9.320;2022-08-03T15:01:42;98557.19;;;51.65;11.79
23446;BME280;11895;48.738;9.320;2022-08-03T15:04:29;98547.88;;;51.09;12.13
23446;BME280;11895;48.738;9.320;2022-08-03T15:07:01;98548.47;;;52.25;11.89
23446;BME280;11895;48.738;9.320;2022-08-03T15:09:28;98549.75;;;51.64;11.76
23446;BME280;11895;48.738;9.320;2022-08-03T15:11:58;98550.22;;;51.96;11.61
23446;BME280;11895;48.738;9.320;2022-08-03T15:14:26;98539.97;;;52.74;11.12
23446;BME280;11895;48.738;9.320;2022-08-03T15:16:59;98539.84;;;52.37;11.25
23446;BME280;11895;48.738;9.320;2022-08-03T15:19:26;98528.84;;;50.96;12.04
23446;BME280;11895;48.738;9.320;2022-08-03T15:22:13;98531.00;;;51.88;11.86
23446;BME280;11895;48.738;9.320;2022-08-03T15:24:46;98521.28;;;49.49;13.16
23446;BME280;11895;48.738;9.320;2022-08-03T15:27:14;98515.69;;;46.56;14.75
23446;BME280;11895;48.738;9.320;2022-08-03T15:29:41;98517.34;;;48.88;13.61
23446;BME280;11895;48.738;9.320;2022-08-03T15:32:32;98510.97;;;49.39;13.42
23446;BME280;11895;48.738;9.320;2022-08-03T15:35:05;98509.00;;;49.57;13.08
23446;BME280;11895;48.738;9.320;2022-08-03T15:37:33;98504.09;;;50.19;12.99
23446;BME280;11895;48.738;9.320;2022-08-03T15:40:00;98511.56;;;50.84;12.20
23446;BME280;11895;48.738;9.320;2022-08-03T15:42:29;98496.75;;;50.64;12.50
23446;BME280;11895;48.738;9.320;2022-08-03T15:45:00;98507.97;;;51.25;12.17
23446;BME280;11895;48.738;9.320;2022-08-03T15:47:27;98507.44;;;49.51;12.76
23446;BME280;11895;48.738;9.320;2022-08-03T15:49:54;98495.53;;;48.61;13.55
23446;BME280;11895;48.738;9.320;2022-08-03T15:52:22;98499.03;;;48.04;13.89
23446;BME280;11895;48.738;9.320;2022-08-03T15:54:52;98499.38;;;49.53;13.00
23446;BME280;11895;48.738;9.320;2022-08-03T15:57:22;98495.00;;;49.64;13.23
23446;BME280;11895;48.738;9.320;2022-08-03T15:59:49;98492.50;;;49.98;13.08
23446;BME280;11895;48.738;9.320;2022-08-03T16:02:19;98503.41;;;50.04;12.98
23446;BME280;11895;48.738;9.320;2022-08-03T16:04:47;98496.25;;;50.62;12.63
23446;BME280;11895;48.738;9.320;2022-08-03T16:07:14;98491.06;;;50.56;12.70
23446;BME280;11895;48.738;9.320;2022-08-03T16:09:41;98489.75;;;49.23;13.54
23446;BME280;11895;48.738;9.320;2022-08-03T16:12:10;98488.13;;;49.57;13.15
23446;BME280;11895;48.738;9.320;2022-08-03T16:14:45;98482.41;;;48.60;13.85
23446;BME280;11895;48.738;9.320;2022-08-03T16:17:22;98476.09;;;48.41;13.68
23446;BME280;11895;48.738;9.320;2022-08-03T16:19:50;98478.03;;;46.73;14.92
23446;BME280;11895;48.738;9.320;2022-08-03T16:22:22;98464.47;;;43.75;17.11
23446;BME280;11895;48.738;9.320;2022-08-03T16:24:51;98454.53;;;43.38;17.26
23446;BME280;11895;48.738;9.320;2022-08-03T16:27:22;98463.41;;;42.67;17.97
23446;BME280;11895;48.738;9.320;2022-08-03T16:30:11;98465.09;;;42.63;17.90
23446;BME280;11895;48.738;9.320;2022-08-03T16:32:43;98451.03;;;42.01;19.10
23446;BME280;11895;48.738;9.320;2022-08-03T16:35:12;98453.84;;;42.11;18.81
23446;BME280;11895;48.738;9.320;2022-08-03T16:37:47;98452.44;;;41.63;19.23